createdAt,value
2017-04-01T00:00:06.197Z,0
2017-04-01T00:01:16.169Z,0
2017-04-01T00:02:26.443Z,0
2017-04-01T00:03:36.400Z,0
2017-04-01T00:04:46.669Z,0
2017-04-01T00:05:57.244Z,0
2017-04-01T00:07:07.518Z,0
2017-04-01T00:08:17.789Z,0
2017-04-01T00:09:28.069Z,0
2017-04-01T00:10:38.346Z,0
2017-04-01T00:11:48.572Z,0
2017-04-01T00:12:58.845Z,0
2017-04-01T00:14:09.128Z,0
2017-04-01T00:15:19.395Z,0
2017-04-01T00:16:29.678Z,0
2017-04-01T00:17:40.264Z,0
2017-04-01T00:18:50.537Z,0
2017-04-01T00:20:00.802Z,0
2017-04-01T00:21:11.080Z,0
2017-04-01T00:22:21.364Z,0
2017-04-01T00:23:31.631Z,0
2017-04-01T00:24:41.910Z,0
2017-04-01T00:25:52.181Z,0
2017-04-01T00:27:02.457Z,0
2017-04-01T00:28:12.426Z,0
2017-04-01T00:29:22.994Z,0
2017-04-01T00:30:33.259Z,0
2017-04-01T00:31:43.516Z,0
2017-04-01T00:32:53.489Z,0
2017-04-01T00:34:03.448Z,0
2017-04-01T00:35:13.723Z,0
2017-04-01T00:36:24.007Z,0
2017-04-01T00:37:33.973Z,0
2017-04-01T00:38:44.244Z,0
2017-04-01T00:39:54.518Z,0
2017-04-01T00:41:05.094Z,0
2017-04-01T00:42:15.072Z,0
2017-04-01T00:43:25.341Z,0
2017-04-01T00:44:35.615Z,0
2017-04-01T00:45:45.582Z,0
2017-04-01T00:46:56.168Z,0
2017-04-01T00:48:06.488Z,0
2017-04-01T00:49:16.759Z,0
2017-04-01T00:50:27.047Z,0
2017-04-01T00:51:37.318Z,0
2017-04-01T00:52:47.896Z,0
2017-04-01T00:53:58.175Z,0
2017-04-01T00:55:08.443Z,0
2017-04-01T00:56:18.421Z,0
2017-04-01T00:57:28.695Z,0
2017-04-01T00:58:39.271Z,0
2017-04-01T00:59:49.547Z,0
2017-04-01T01:00:59.825Z,0
2017-04-01T01:02:09.790Z,0
2017-04-01T01:03:19.762Z,0
2017-04-01T01:04:30.023Z,0
2017-04-01T01:05:39.989Z,0
2017-04-01T01:06:49.626Z,0
2017-04-01T01:07:59.901Z,0
2017-04-01T01:09:10.212Z,0
2017-04-01T01:10:20.785Z,0
2017-04-01T01:11:31.060Z,0
2017-04-01T01:12:41.347Z,0
2017-04-01T01:13:51.306Z,0
2017-04-01T01:15:01.576Z,0
2017-04-01T01:16:12.144Z,0
2017-04-01T01:17:22.113Z,0
2017-04-01T01:18:32.083Z,0
2017-04-01T01:19:42.355Z,0
2017-04-01T01:20:51.996Z,0
2017-04-01T01:22:02.213Z,0
2017-04-01T01:23:12.490Z,0
2017-04-01T01:24:22.134Z,0
2017-04-01T01:25:32.415Z,0
2017-04-01T01:26:42.683Z,0
2017-04-01T01:27:52.949Z,0
2017-04-01T01:29:02.908Z,0
2017-04-01T01:30:12.559Z,0
2017-04-01T01:31:22.936Z,0
2017-04-01T01:32:33.211Z,0
2017-04-01T01:33:43.479Z,0
2017-04-01T01:34:53.145Z,0
2017-04-01T01:36:03.425Z,0
2017-04-01T01:37:13.697Z,0
2017-04-01T01:38:23.977Z,0
2017-04-01T01:39:34.548Z,0
2017-04-01T01:40:44.509Z,0
2017-04-01T01:41:54.776Z,0
2017-04-01T01:43:05.052Z,0
2017-04-01T01:44:14.704Z,0
2017-04-01T01:45:25.531Z,0
2017-04-01T01:46:35.509Z,0
2017-04-01T01:47:45.464Z,0
2017-04-01T01:48:55.736Z,0
2017-04-01T01:50:05.720Z,0
2017-04-01T01:51:15.936Z,0
2017-04-01T01:52:26.197Z,0
2017-04-01T01:53:36.473Z,0
2017-04-01T01:54:46.745Z,0
2017-04-01T01:55:57.019Z,0
2017-04-01T01:57:07.233Z,0
2017-04-01T01:58:17.196Z,0
2017-04-01T01:59:27.462Z,0
2017-04-01T02:00:37.896Z,0
2017-04-01T02:01:48.163Z,0
2017-04-01T02:02:57.946Z,0
2017-04-01T02:04:07.901Z,0
2017-04-01T02:05:17.242Z,0
2017-04-01T02:06:27.518Z,0
2017-04-01T02:07:37.521Z,0
2017-04-01T02:08:48.112Z,0
2017-04-01T02:09:58.392Z,0
2017-04-01T02:11:08.658Z,0
2017-04-01T02:12:18.924Z,0
2017-04-01T02:13:29.208Z,0
2017-04-01T02:14:39.790Z,0
2017-04-01T02:15:50.059Z,0
2017-04-01T02:17:00.335Z,0
2017-04-01T02:18:10.295Z,0
2017-04-01T02:19:19.946Z,0
2017-04-01T02:20:30.206Z,0
2017-04-01T02:21:40.188Z,0
2017-04-01T02:22:50.460Z,0
2017-04-01T02:24:00.418Z,0
2017-04-01T02:25:10.700Z,0
2017-04-01T02:26:21.232Z,0
2017-04-01T02:27:31.744Z,0
2017-04-01T02:28:42.030Z,0
2017-04-01T02:29:51.995Z,0
2017-04-01T02:31:02.259Z,0
2017-04-01T02:32:12.480Z,0
2017-04-01T02:33:22.433Z,0
2017-04-01T02:34:32.707Z,0
2017-04-01T02:35:42.672Z,0
2017-04-01T02:36:52.945Z,0
2017-04-01T02:38:03.162Z,0
2017-04-01T02:39:13.434Z,0
2017-04-01T02:40:23.394Z,0
2017-04-01T02:41:33.356Z,0
2017-04-01T02:42:43.318Z,0
2017-04-01T02:43:53.576Z,0
2017-04-01T02:45:03.224Z,0
2017-04-01T02:46:13.492Z,0
2017-04-01T02:47:23.446Z,0
2017-04-01T02:48:33.714Z,0
2017-04-01T02:49:43.939Z,0
2017-04-01T02:50:53.892Z,0
2017-04-01T02:52:04.242Z,0
2017-04-01T02:53:14.511Z,0
2017-04-01T02:54:24.786Z,0
2017-04-01T02:55:35.368Z,0
2017-04-01T02:56:45.635Z,0
2017-04-01T02:57:55.965Z,0
2017-04-01T02:59:05.918Z,0
2017-04-01T03:00:15.891Z,0
2017-04-01T03:01:26.149Z,0
2017-04-01T03:02:36.430Z,0
2017-04-01T03:03:46.712Z,0
2017-04-01T03:04:56.678Z,0
2017-04-01T03:06:06.685Z,0
2017-04-01T03:07:16.960Z,0
2017-04-01T03:08:26.925Z,0
2017-04-01T03:09:37.194Z,0
2017-04-01T03:10:47.461Z,0
2017-04-01T03:11:57.727Z,0
2017-04-01T03:13:08.296Z,0
2017-04-01T03:14:18.566Z,0
2017-04-01T03:15:28.840Z,0
2017-04-01T03:16:39.124Z,0
2017-04-01T03:17:49.547Z,0
2017-04-01T03:19:00.107Z,0
2017-04-01T03:20:10.066Z,0
2017-04-01T03:21:20.036Z,0
2017-04-01T03:22:30.309Z,0
2017-04-01T03:23:40.607Z,0
2017-04-01T03:24:50.866Z,0
2017-04-01T03:26:01.136Z,0
2017-04-01T03:27:11.410Z,0
2017-04-01T03:28:21.683Z,0
2017-04-01T03:29:31.660Z,0
2017-04-01T03:30:42.175Z,0
2017-04-01T03:31:52.441Z,0
2017-04-01T03:33:02.405Z,0
2017-04-01T03:34:12.691Z,0
2017-04-01T03:35:22.954Z,0
2017-04-01T03:36:33.494Z,0
2017-04-01T03:37:43.762Z,0
2017-04-01T03:38:53.716Z,0
2017-04-01T03:40:03.985Z,0
2017-04-01T03:41:13.960Z,0
2017-04-01T03:42:24.217Z,0
2017-04-01T03:43:34.495Z,0
2017-04-01T03:44:44.452Z,0
2017-04-01T03:45:54.725Z,0
2017-04-01T03:47:05.003Z,0
2017-04-01T03:48:15.273Z,0
2017-04-01T03:49:25.544Z,0
2017-04-01T03:50:35.501Z,0
2017-04-01T03:51:45.777Z,0
2017-04-01T03:52:56.054Z,0
2017-04-01T03:54:06.312Z,0
2017-04-01T03:55:16.586Z,0
2017-04-01T03:56:26.854Z,0
2017-04-01T03:57:36.508Z,0
2017-04-01T03:58:46.158Z,0
2017-04-01T03:59:56.419Z,0
2017-04-01T04:01:06.699Z,0
2017-04-01T04:02:16.661Z,0
2017-04-01T04:03:26.942Z,0
2017-04-01T04:04:37.210Z,0
2017-04-01T04:05:47.161Z,0
2017-04-01T04:06:57.438Z,0
2017-04-01T04:08:07.712Z,0
2017-04-01T04:09:17.358Z,0
2017-04-01T04:10:27.644Z,0
2017-04-01T04:11:38.258Z,0
2017-04-01T04:12:48.539Z,0
2017-04-01T04:13:58.801Z,0
2017-04-01T04:15:08.768Z,0
2017-04-01T04:16:19.040Z,0
2017-04-01T04:17:29.556Z,0
2017-04-01T04:18:39.835Z,0
2017-04-01T04:19:50.108Z,0
2017-04-01T04:21:00.319Z,0
2017-04-01T04:22:10.593Z,0
2017-04-01T04:23:21.172Z,0
2017-04-01T04:24:31.139Z,0
2017-04-01T04:25:40.784Z,0
2017-04-01T04:26:50.743Z,0
2017-04-01T04:28:00.706Z,0
2017-04-01T04:29:11.279Z,0
2017-04-01T04:30:21.551Z,0
2017-04-01T04:31:31.835Z,0
2017-04-01T04:32:41.797Z,0
2017-04-01T04:33:52.080Z,0
2017-04-01T04:35:02.605Z,0
2017-04-01T04:36:12.584Z,0
2017-04-01T04:37:22.246Z,0
2017-04-01T04:38:32.206Z,0
2017-04-01T04:39:42.485Z,4
2017-04-01T04:40:52.746Z,0
2017-04-01T04:42:02.746Z,0
2017-04-01T04:43:13.023Z,4
2017-04-01T04:44:23.286Z,4
2017-04-01T04:45:33.556Z,0
2017-04-01T04:46:44.140Z,4
2017-04-01T04:47:54.104Z,4
2017-04-01T04:49:04.393Z,4
2017-04-01T04:50:14.352Z,4
2017-04-01T04:51:24.655Z,4
2017-04-01T04:52:34.951Z,4
2017-04-01T04:53:45.229Z,8
2017-04-01T04:54:55.509Z,8
2017-04-01T04:56:05.787Z,8
2017-04-01T04:57:16.087Z,8
2017-04-01T04:58:26.658Z,8
2017-04-01T04:59:36.621Z,16
2017-04-01T05:00:46.273Z,16
2017-04-01T05:01:56.236Z,16
2017-04-01T05:03:06.503Z,20
2017-04-01T05:04:16.771Z,20
2017-04-01T05:05:26.413Z,24
2017-04-01T05:06:36.693Z,24
2017-04-01T05:07:46.969Z,24
2017-04-01T05:08:56.931Z,28
2017-04-01T05:10:07.506Z,24
2017-04-01T05:11:17.476Z,24
2017-04-01T05:12:27.441Z,32
2017-04-01T05:13:37.714Z,36
2017-04-01T05:14:47.987Z,40
2017-04-01T05:15:58.559Z,36
2017-04-01T05:17:08.527Z,36
2017-04-01T05:18:18.803Z,36
2017-04-01T05:19:28.758Z,36
2017-04-01T05:20:39.035Z,44
2017-04-01T05:21:49.620Z,48
2017-04-01T05:22:59.907Z,52
2017-04-01T05:24:09.557Z,60
2017-04-01T05:25:19.515Z,68
2017-04-01T05:26:29.797Z,72
2017-04-01T05:27:40.363Z,72
2017-04-01T05:28:50.635Z,80
2017-04-01T05:30:01.139Z,88
2017-04-01T05:31:11.105Z,92
2017-04-01T05:32:21.059Z,92
2017-04-01T05:33:31.782Z,92
2017-04-01T05:34:41.741Z,96
2017-04-01T05:35:52.018Z,96
2017-04-01T05:37:02.290Z,92
2017-04-01T05:38:12.324Z,100
2017-04-01T05:39:22.624Z,104
2017-04-01T05:40:32.901Z,108
2017-04-01T05:41:42.865Z,108
2017-04-01T05:42:53.128Z,108
2017-04-01T05:44:03.420Z,112
2017-04-01T05:45:13.989Z,112
2017-04-01T05:46:23.950Z,112
2017-04-01T05:47:34.242Z,108
2017-04-01T05:48:44.213Z,108
2017-04-01T05:49:54.490Z,112
2017-04-01T05:51:05.055Z,108
2017-04-01T05:52:15.369Z,104
2017-04-01T05:53:25.637Z,108
2017-04-01T05:54:35.910Z,112
2017-04-01T05:55:45.869Z,108
2017-04-01T05:56:56.437Z,96
2017-04-01T05:58:06.698Z,88
2017-04-01T05:59:16.964Z,108
2017-04-01T06:00:27.238Z,108
2017-04-01T06:01:37.635Z,88
2017-04-01T06:02:47.909Z,80
2017-04-01T06:03:58.181Z,72
2017-04-01T06:05:08.457Z,68
2017-04-01T06:06:18.418Z,68
2017-04-01T06:07:28.699Z,80
2017-04-01T06:08:39.059Z,84
2017-04-01T06:09:49.014Z,96
2017-04-01T06:10:59.299Z,92
2017-04-01T06:12:09.634Z,92
2017-04-01T06:13:19.906Z,92
2017-04-01T06:14:30.478Z,92
2017-04-01T06:15:40.756Z,104
2017-04-01T06:16:51.028Z,104
2017-04-01T06:18:01.021Z,96
2017-04-01T06:19:11.289Z,92
2017-04-01T06:20:21.867Z,84
2017-04-01T06:21:31.837Z,72
2017-04-01T06:22:42.111Z,88
2017-04-01T06:23:52.384Z,84
2017-04-01T06:25:02.649Z,92
2017-04-01T06:26:12.919Z,84
2017-04-01T06:27:23.193Z,76
2017-04-01T06:28:33.470Z,76
2017-04-01T06:29:43.737Z,84
2017-04-01T06:30:54.016Z,104
2017-04-01T06:32:04.278Z,100
2017-04-01T06:33:14.597Z,100
2017-04-01T06:34:24.941Z,104
2017-04-01T06:35:35.227Z,96
2017-04-01T06:36:45.499Z,108
2017-04-01T06:37:56.064Z,108
2017-04-01T06:39:06.347Z,108
2017-04-01T06:40:16.307Z,108
2017-04-01T06:41:26.642Z,104
2017-04-01T06:42:36.913Z,104
2017-04-01T06:43:47.230Z,100
2017-04-01T06:44:56.883Z,96
2017-04-01T06:46:07.170Z,92
2017-04-01T06:47:17.146Z,92
2017-04-01T06:48:27.178Z,84
2017-04-01T06:49:37.146Z,88
2017-04-01T06:50:47.421Z,88
2017-04-01T06:51:57.718Z,84
2017-04-01T06:53:07.987Z,88
2017-04-01T06:54:18.257Z,96
2017-04-01T06:55:28.828Z,88
2017-04-01T06:56:39.120Z,84
2017-04-01T06:57:49.401Z,84
2017-04-01T06:58:59.689Z,88
2017-04-01T07:00:09.958Z,96
2017-04-01T07:01:20.534Z,100
2017-04-01T07:02:30.875Z,96
2017-04-01T07:03:40.844Z,96
2017-04-01T07:04:50.819Z,96
2017-04-01T07:06:01.110Z,96
2017-04-01T07:07:11.377Z,92
2017-04-01T07:08:21.646Z,96
2017-04-01T07:09:31.929Z,92
2017-04-01T07:10:42.204Z,92
2017-04-01T07:11:52.483Z,88
2017-04-01T07:13:03.059Z,88
2017-04-01T07:14:13.033Z,92
2017-04-01T07:15:23.536Z,92
2017-04-01T07:16:33.820Z,92
2017-04-01T07:17:43.781Z,92
2017-04-01T07:18:53.740Z,92
2017-04-01T07:20:04.041Z,92
2017-04-01T07:21:14.318Z,88
2017-04-01T07:22:24.631Z,88
2017-04-01T07:23:34.911Z,88
2017-04-01T07:24:45.182Z,92
2017-04-01T07:25:55.462Z,92
2017-04-01T07:27:05.721Z,88
2017-04-01T07:28:15.701Z,88
2017-04-01T07:29:26.000Z,92
2017-04-01T07:30:36.589Z,76
2017-04-01T07:31:46.869Z,88
2017-04-01T07:32:56.863Z,88
2017-04-01T07:34:06.842Z,88
2017-04-01T07:35:17.123Z,84
2017-04-01T07:36:27.716Z,84
2017-04-01T07:37:37.991Z,84
2017-04-01T07:38:48.264Z,84
2017-04-01T07:39:58.557Z,88
2017-04-01T07:41:08.834Z,88
2017-04-01T07:42:19.448Z,84
2017-04-01T07:43:29.718Z,84
2017-04-01T07:44:40.014Z,84
2017-04-01T07:45:49.973Z,84
2017-04-01T07:46:59.937Z,84
2017-04-01T07:48:10.197Z,88
2017-04-01T07:49:20.173Z,84
2017-04-01T07:50:30.145Z,84
2017-04-01T07:51:40.423Z,76
2017-04-01T07:52:50.705Z,80
2017-04-01T07:54:01.280Z,84
2017-04-01T07:55:11.567Z,84
2017-04-01T07:56:21.834Z,88
2017-04-01T07:57:31.806Z,84
2017-04-01T07:58:41.785Z,84
2017-04-01T07:59:52.365Z,84
2017-04-01T08:01:02.647Z,88
2017-04-01T08:02:12.928Z,84
2017-04-01T08:03:22.896Z,88
2017-04-01T08:04:33.178Z,84
2017-04-01T08:05:43.763Z,84
2017-04-01T08:06:53.415Z,84
2017-04-01T08:08:03.397Z,84
2017-04-01T08:09:13.050Z,84
2017-04-01T08:10:23.326Z,84
2017-04-01T08:11:33.902Z,80
2017-04-01T08:12:43.873Z,84
2017-04-01T08:13:54.152Z,84
2017-04-01T08:15:03.807Z,72
2017-04-01T08:16:13.780Z,84
2017-04-01T08:17:24.351Z,84
2017-04-01T08:18:34.632Z,88
2017-04-01T08:19:44.915Z,88
2017-04-01T08:20:55.204Z,84
2017-04-01T08:22:05.485Z,84
2017-04-01T08:23:16.076Z,84
2017-04-01T08:24:26.354Z,88
2017-04-01T08:25:36.638Z,84
2017-04-01T08:26:46.911Z,88
2017-04-01T08:27:57.184Z,88
2017-04-01T08:29:07.456Z,88
2017-04-01T08:30:17.427Z,88
2017-04-01T08:31:27.716Z,88
2017-04-01T08:32:37.683Z,88
2017-04-01T08:33:47.957Z,80
2017-04-01T08:34:58.555Z,84
2017-04-01T08:36:08.840Z,84
2017-04-01T08:37:19.122Z,84
2017-04-01T08:38:29.430Z,80
2017-04-01T08:39:39.098Z,84
2017-04-01T08:40:49.711Z,84
2017-04-01T08:41:59.680Z,84
2017-04-01T08:43:09.966Z,88
2017-04-01T08:44:19.931Z,88
2017-04-01T08:45:29.588Z,84
2017-04-01T08:46:40.160Z,84
2017-04-01T08:47:50.448Z,88
2017-04-01T08:49:00.732Z,84
2017-04-01T08:50:11.014Z,84
2017-04-01T08:51:21.299Z,84
2017-04-01T08:52:31.262Z,88
2017-04-01T08:53:41.230Z,84
2017-04-01T08:54:51.515Z,88
2017-04-01T08:56:02.067Z,88
2017-04-01T08:57:12.355Z,84
2017-04-01T08:58:22.935Z,88
2017-04-01T08:59:33.225Z,88
2017-04-01T09:00:43.546Z,88
2017-04-01T09:01:53.827Z,88
2017-04-01T09:03:04.107Z,88
2017-04-01T09:04:14.704Z,88
2017-04-01T09:05:24.675Z,88
2017-04-01T09:06:34.960Z,88
2017-04-01T09:07:45.243Z,88
2017-04-01T09:08:55.201Z,80
2017-04-01T09:10:05.796Z,84
2017-04-01T09:11:16.080Z,88
2017-04-01T09:12:26.373Z,84
2017-04-01T09:13:36.337Z,88
2017-04-01T09:14:46.616Z,88
2017-04-01T09:15:56.895Z,88
2017-04-01T09:17:07.166Z,84
2017-04-01T09:18:17.449Z,88
2017-04-01T09:19:27.766Z,88
2017-04-01T09:20:37.738Z,84
2017-04-01T09:21:47.696Z,80
2017-04-01T09:22:58.008Z,80
2017-04-01T09:24:08.291Z,88
2017-04-01T09:25:18.576Z,88
2017-04-01T09:26:28.864Z,88
2017-04-01T09:27:39.246Z,92
2017-04-01T09:28:49.229Z,92
2017-04-01T09:29:59.537Z,92
2017-04-01T09:31:09.507Z,88
2017-04-01T09:32:19.779Z,88
2017-04-01T09:33:30.359Z,88
2017-04-01T09:34:40.636Z,88
2017-04-01T09:35:50.919Z,88
2017-04-01T09:37:01.221Z,92
2017-04-01T09:38:11.235Z,92
2017-04-01T09:39:21.808Z,92
2017-04-01T09:40:31.783Z,88
2017-04-01T09:41:42.070Z,96
2017-04-01T09:42:52.035Z,92
2017-04-01T09:44:02.011Z,92
2017-04-01T09:45:12.278Z,92
2017-04-01T09:46:21.659Z,88
2017-04-01T09:47:31.346Z,88
2017-04-01T09:48:41.321Z,96
2017-04-01T09:49:51.315Z,92
2017-04-01T09:51:01.892Z,88
2017-04-01T09:52:12.174Z,88
2017-04-01T09:53:22.139Z,92
2017-04-01T09:54:32.118Z,92
2017-04-01T09:55:42.105Z,92
2017-04-01T09:56:52.728Z,92
2017-04-01T09:58:03.019Z,92
2017-04-01T09:59:13.293Z,92
2017-04-01T10:00:23.572Z,92
2017-04-01T10:01:33.842Z,92
2017-04-01T10:02:44.432Z,88
2017-04-01T10:03:54.412Z,92
2017-04-01T10:05:04.692Z,92
2017-04-01T10:06:14.661Z,88
2017-04-01T10:07:24.700Z,88
2017-04-01T10:08:35.284Z,88
2017-04-01T10:09:45.569Z,88
2017-04-01T10:10:55.867Z,92
2017-04-01T10:12:06.191Z,96
2017-04-01T10:13:16.206Z,92
2017-04-01T10:14:26.494Z,92
2017-04-01T10:15:36.774Z,92
2017-04-01T10:16:46.743Z,96
2017-04-01T10:17:56.401Z,96
2017-04-01T10:19:06.689Z,96
2017-04-01T10:20:16.961Z,96
2017-04-01T10:21:27.247Z,96
2017-04-01T10:22:37.523Z,100
2017-04-01T10:23:47.805Z,96
2017-04-01T10:24:58.086Z,96
2017-04-01T10:26:08.681Z,96
2017-04-01T10:27:18.649Z,92
2017-04-01T10:28:28.620Z,92
2017-04-01T10:29:38.897Z,92
2017-04-01T10:30:49.194Z,92
2017-04-01T10:31:59.158Z,92
2017-04-01T10:33:09.134Z,92
2017-04-01T10:34:19.158Z,92
2017-04-01T10:35:29.443Z,88
2017-04-01T10:36:39.422Z,92
2017-04-01T10:37:49.997Z,92
2017-04-01T10:38:59.979Z,88
2017-04-01T10:40:10.256Z,88
2017-04-01T10:41:20.234Z,88
2017-04-01T10:42:30.510Z,88
2017-04-01T10:43:41.097Z,92
2017-04-01T10:44:51.401Z,92
2017-04-01T10:46:01.394Z,88
2017-04-01T10:47:11.675Z,92
2017-04-01T10:48:21.639Z,88
2017-04-01T10:49:31.925Z,88
2017-04-01T10:50:42.210Z,92
2017-04-01T10:51:52.205Z,92
2017-04-01T10:53:02.500Z,88
2017-04-01T10:54:12.775Z,88
2017-04-01T10:55:23.048Z,92
2017-04-01T10:56:32.711Z,88
2017-04-01T10:57:42.683Z,88
2017-04-01T10:58:52.972Z,88
2017-04-01T11:00:03.269Z,92
2017-04-01T11:01:13.847Z,84
2017-04-01T11:02:23.829Z,84
2017-04-01T11:03:33.792Z,84
2017-04-01T11:04:43.774Z,84
2017-04-01T11:05:53.754Z,84
2017-04-01T11:07:04.344Z,84
2017-04-01T11:08:14.326Z,88
2017-04-01T11:09:24.606Z,88
2017-04-01T11:10:34.255Z,88
2017-04-01T11:11:44.542Z,84
2017-04-01T11:12:55.137Z,84
2017-04-01T11:14:04.814Z,88
2017-04-01T11:15:15.098Z,88
2017-04-01T11:16:25.390Z,84
2017-04-01T11:17:35.690Z,84
2017-04-01T11:18:46.273Z,84
2017-04-01T11:19:56.249Z,84
2017-04-01T11:21:06.545Z,84
2017-04-01T11:22:16.845Z,80
2017-04-01T11:23:27.188Z,80
2017-04-01T11:24:37.159Z,80
2017-04-01T11:25:47.118Z,84
2017-04-01T11:26:57.086Z,80
2017-04-01T11:28:07.368Z,84
2017-04-01T11:29:17.660Z,84
2017-04-01T11:30:28.256Z,84
2017-04-01T11:31:38.541Z,84
2017-04-01T11:32:48.563Z,84
2017-04-01T11:33:58.874Z,80
2017-04-01T11:35:09.168Z,84
2017-04-01T11:36:19.753Z,80
2017-04-01T11:37:30.050Z,80
2017-04-01T11:38:40.032Z,80
2017-04-01T11:39:50.327Z,84
2017-04-01T11:41:00.306Z,84
2017-04-01T11:42:10.603Z,80
2017-04-01T11:43:20.880Z,80
2017-04-01T11:44:31.166Z,80
2017-04-01T11:45:41.446Z,80
2017-04-01T11:46:51.776Z,76
2017-04-01T11:48:02.353Z,76
2017-04-01T11:49:12.687Z,76
2017-04-01T11:50:22.683Z,72
2017-04-01T11:51:32.965Z,76
2017-04-01T11:52:42.933Z,76
2017-04-01T11:53:52.579Z,76
2017-04-01T11:55:02.550Z,76
2017-04-01T11:56:12.828Z,76
2017-04-01T11:57:23.135Z,80
2017-04-01T11:58:33.104Z,76
2017-04-01T11:59:44.002Z,80
2017-04-01T12:00:53.977Z,76
2017-04-01T12:02:04.263Z,76
2017-04-01T12:03:14.542Z,76
2017-04-01T12:04:24.225Z,76
2017-04-01T12:05:34.805Z,76
2017-04-01T12:06:45.079Z,76
2017-04-01T12:07:55.364Z,76
2017-04-01T12:09:05.333Z,76
2017-04-01T12:10:15.612Z,76
2017-04-01T12:11:26.141Z,72
2017-04-01T12:12:36.432Z,76
2017-04-01T12:13:46.412Z,72
2017-04-01T12:14:56.689Z,76
2017-04-01T12:16:06.978Z,72
2017-04-01T12:17:17.247Z,72
2017-04-01T12:18:27.535Z,72
2017-04-01T12:19:37.511Z,72
2017-04-01T12:20:47.803Z,72
2017-04-01T12:21:58.099Z,72
2017-04-01T12:23:08.676Z,72
2017-04-01T12:24:18.650Z,72
2017-04-01T12:25:28.934Z,72
2017-04-01T12:26:38.899Z,68
2017-04-01T12:27:49.199Z,72
2017-04-01T12:28:59.730Z,72
2017-04-01T12:30:09.867Z,68
2017-04-01T12:31:19.844Z,68
2017-04-01T12:32:29.509Z,68
2017-04-01T12:33:39.802Z,64
2017-04-01T12:34:54.643Z,68
2017-04-01T12:36:04.953Z,72
2017-04-01T12:37:15.246Z,72
2017-04-01T12:38:25.539Z,72
2017-04-01T12:39:35.522Z,68
2017-04-01T12:40:46.056Z,68
2017-04-01T12:41:56.350Z,72
2017-04-01T12:43:06.634Z,72
2017-04-01T12:44:16.286Z,68
2017-04-01T12:45:26.570Z,68
2017-04-01T12:46:37.093Z,68
2017-04-01T12:47:47.377Z,72
2017-04-01T12:48:57.658Z,72
2017-04-01T12:50:07.642Z,72
2017-04-01T12:51:17.920Z,68
2017-04-01T12:52:28.452Z,68
2017-04-01T12:53:37.812Z,64
2017-04-01T12:54:48.099Z,68
2017-04-01T12:55:57.768Z,64
2017-04-01T12:57:08.060Z,64
2017-04-01T12:58:18.318Z,68
2017-04-01T12:59:28.605Z,68
2017-04-01T13:00:38.886Z,68
2017-04-01T13:01:49.192Z,68
2017-04-01T13:02:59.472Z,68
2017-04-01T13:04:10.077Z,68
2017-04-01T13:05:20.361Z,68
2017-04-01T13:06:30.322Z,68
2017-04-01T13:07:40.609Z,64
2017-04-01T13:08:50.896Z,64
2017-04-01T13:10:01.161Z,64
2017-04-01T13:11:11.135Z,64
2017-04-01T13:12:21.106Z,60
2017-04-01T13:13:31.077Z,60
2017-04-01T13:14:41.363Z,60
2017-04-01T13:15:51.960Z,60
2017-04-01T13:17:02.239Z,60
2017-04-01T13:18:12.534Z,64
2017-04-01T13:19:22.816Z,64
2017-04-01T13:20:32.831Z,64
2017-04-01T13:21:43.381Z,68
2017-04-01T13:22:53.345Z,64
2017-04-01T13:24:03.638Z,64
2017-04-01T13:25:13.921Z,64
2017-04-01T13:26:24.203Z,64
2017-04-01T13:27:34.731Z,60
2017-04-01T13:28:45.023Z,64
2017-04-01T13:29:55.305Z,60
2017-04-01T13:31:05.582Z,60
2017-04-01T13:32:15.564Z,64
2017-04-01T13:33:26.140Z,60
2017-04-01T13:34:36.412Z,60
2017-04-01T13:35:46.396Z,60
2017-04-01T13:36:56.682Z,56
2017-04-01T13:38:06.965Z,60
2017-04-01T13:39:17.494Z,60
2017-04-01T13:40:27.161Z,56
2017-04-01T13:41:37.122Z,60
2017-04-01T13:42:47.407Z,60
2017-04-01T13:43:57.685Z,56
2017-04-01T13:45:07.669Z,56
2017-04-01T13:46:17.955Z,52
2017-04-01T13:47:28.236Z,56
2017-04-01T13:48:38.529Z,56
2017-04-01T13:49:48.818Z,56
2017-04-01T13:50:59.089Z,52
2017-04-01T13:52:09.063Z,52
2017-04-01T13:53:19.351Z,52
2017-04-01T13:54:29.005Z,52
2017-04-01T13:55:39.297Z,56
2017-04-01T13:56:49.525Z,56
2017-04-01T13:57:59.211Z,52
2017-04-01T13:59:09.493Z,52
2017-04-01T14:00:19.777Z,56
2017-04-01T14:01:30.077Z,52
2017-04-01T14:02:40.656Z,56
2017-04-01T14:03:50.618Z,48
2017-04-01T14:05:00.927Z,52
2017-04-01T14:06:11.225Z,48
2017-04-01T14:07:21.505Z,48
2017-04-01T14:08:32.039Z,44
2017-04-01T14:09:42.308Z,44
2017-04-01T14:10:52.283Z,48
2017-04-01T14:12:02.246Z,48
2017-04-01T14:13:12.238Z,48
2017-04-01T14:14:22.777Z,48
2017-04-01T14:15:33.052Z,48
2017-04-01T14:16:43.348Z,44
2017-04-01T14:17:53.629Z,48
2017-04-01T14:19:03.646Z,48
2017-04-01T14:20:14.233Z,48
2017-04-01T14:21:24.522Z,48
2017-04-01T14:22:34.801Z,44
2017-04-01T14:23:45.103Z,44
2017-04-01T14:24:55.378Z,48
2017-04-01T14:26:05.912Z,44
2017-04-01T14:27:15.882Z,44
2017-04-01T14:28:25.850Z,48
2017-04-01T14:29:35.823Z,44
2017-04-01T14:30:46.141Z,48
2017-04-01T14:31:56.424Z,48
2017-04-01T14:33:06.706Z,44
2017-04-01T14:34:16.990Z,48
2017-04-01T14:35:26.427Z,48
2017-04-01T14:36:36.437Z,48
2017-04-01T14:37:46.704Z,44
2017-04-01T14:38:57.015Z,44
2017-04-01T14:40:06.990Z,44
2017-04-01T14:41:17.286Z,44
2017-04-01T14:42:27.565Z,44
2017-04-01T14:43:38.155Z,44
2017-04-01T14:44:48.445Z,44
2017-04-01T14:45:58.752Z,44
2017-04-01T14:47:09.053Z,44
2017-04-01T14:48:19.337Z,40
2017-04-01T14:49:30.058Z,44
2017-04-01T14:50:40.030Z,44
2017-04-01T14:51:50.307Z,44
2017-04-01T14:53:00.011Z,40
2017-04-01T14:54:10.310Z,40
2017-04-01T14:55:20.938Z,40
2017-04-01T14:56:31.253Z,40
2017-04-01T14:57:41.559Z,40
2017-04-01T14:58:51.835Z,44
2017-04-01T15:00:02.132Z,44
2017-04-01T15:01:12.682Z,40
2017-04-01T15:02:22.649Z,40
2017-04-01T15:03:32.607Z,40
2017-04-01T15:04:42.898Z,40
2017-04-01T15:05:53.193Z,40
2017-04-01T15:07:03.788Z,40
2017-04-01T15:08:13.763Z,40
2017-04-01T15:09:24.052Z,40
2017-04-01T15:10:34.041Z,40
2017-04-01T15:11:44.392Z,36
2017-04-01T15:12:54.915Z,40
2017-04-01T15:14:05.196Z,40
2017-04-01T15:15:15.493Z,36
2017-04-01T15:16:25.468Z,36
2017-04-01T15:17:35.447Z,36
2017-04-01T15:18:46.032Z,40
2017-04-01T15:19:56.322Z,36
2017-04-01T15:21:06.314Z,36
2017-04-01T15:22:16.601Z,36
2017-04-01T15:23:26.882Z,32
2017-04-01T15:24:37.413Z,36
2017-04-01T15:25:47.727Z,36
2017-04-01T15:26:58.021Z,36
2017-04-01T15:28:08.290Z,32
2017-04-01T15:29:18.604Z,36
2017-04-01T15:30:29.142Z,36
2017-04-01T15:31:38.912Z,32
2017-04-01T15:32:49.187Z,32
2017-04-01T15:33:59.467Z,32
2017-04-01T15:35:09.755Z,28
2017-04-01T15:36:20.125Z,32
2017-04-01T15:37:30.403Z,32
2017-04-01T15:38:40.681Z,28
2017-04-01T15:39:50.978Z,32
2017-04-01T15:41:01.261Z,32
2017-04-01T15:42:11.818Z,28
2017-04-01T15:43:22.101Z,28
2017-04-01T15:44:32.384Z,28
2017-04-01T15:45:42.349Z,28
2017-04-01T15:46:52.331Z,28
2017-04-01T15:48:02.546Z,24
2017-04-01T15:49:12.522Z,24
2017-04-01T15:50:22.189Z,24
2017-04-01T15:51:32.463Z,24
2017-04-01T15:52:42.757Z,24
2017-04-01T15:53:53.284Z,24
2017-04-01T15:55:03.572Z,24
2017-04-01T15:56:13.565Z,24
2017-04-01T15:57:23.546Z,24
2017-04-01T15:58:33.526Z,24
2017-04-01T15:59:44.121Z,20
2017-04-01T16:00:54.404Z,24
2017-04-01T16:02:04.688Z,20
2017-04-01T16:03:14.975Z,20
2017-04-01T16:04:25.311Z,24
2017-04-01T16:05:35.545Z,24
2017-04-01T16:06:45.827Z,20
2017-04-01T16:07:55.804Z,20
2017-04-01T16:09:05.781Z,20
2017-04-01T16:10:16.058Z,20
2017-04-01T16:11:26.591Z,16
2017-04-01T16:12:36.887Z,16
2017-04-01T16:13:46.954Z,20
2017-04-01T16:14:57.237Z,16
2017-04-01T16:16:06.893Z,16
2017-04-01T16:17:17.457Z,16
2017-04-01T16:18:27.433Z,16
2017-04-01T16:19:37.710Z,16
2017-04-01T16:20:47.677Z,12
2017-04-01T16:21:57.649Z,16
2017-04-01T16:23:07.867Z,16
2017-04-01T16:24:18.146Z,12
2017-04-01T16:25:28.421Z,12
2017-04-01T16:26:38.705Z,12
2017-04-01T16:27:48.679Z,12
2017-04-01T16:28:59.265Z,12
2017-04-01T16:30:09.589Z,12
2017-04-01T16:31:19.565Z,8
2017-04-01T16:32:29.853Z,12
2017-04-01T16:33:40.175Z,12
2017-04-01T16:34:50.774Z,12
2017-04-01T16:36:01.061Z,12
2017-04-01T16:37:11.339Z,12
2017-04-01T16:38:21.641Z,8
2017-04-01T16:39:31.629Z,8
2017-04-01T16:40:41.851Z,8
2017-04-01T16:41:52.144Z,8
2017-04-01T16:43:02.419Z,8
2017-04-01T16:44:12.387Z,8
2017-04-01T16:45:22.677Z,8
2017-04-01T16:46:32.954Z,8
2017-04-01T16:47:43.232Z,8
2017-04-01T16:48:53.865Z,8
2017-04-01T16:50:03.843Z,8
2017-04-01T16:51:14.144Z,8